Time;durP1;ratioP1;P1;durP2;ratioP2;P2;SDS_P1;SDS_P2;PMS_P1;PMS_P2;Temp;Humidity;BMP_temperature;BMP_pressure;BME280_temperature;BME280_humidity;BME280_pressure;Samples;Min_cycle;Max_cycle;Signal;HPM_P1;HPM_P2
2022/12/10 00:01:09;;;;;;;;;44.25;37.75;;;;;4.51;71.48;100240.31;5047985;28;45089;-85
2022/12/10 00:03:35;;;;;;;;;41.25;40.00;;;;;4.52;71.73;100243.81;5048064;28;45242;-86
2022/12/10 00:06:05;;;;;;;;;41.50;35.75;;;;;4.51;71.70;100244.63;5047787;28;46151;-85
2022/12/10 00:08:31;;;;;;;;;46.00;39.75;;;;;4.44;71.36;100233.03;5047535;28;45244;-85
2022/12/10 00:10:56;;;;;;;;;43.00;36.00;;;;;4.37;71.47;100225.72;5047174;28;56254;-83
2022/12/10 00:13:22;;;;;;;;;45.25;40.75;;;;;4.35;71.67;100238.66;5048510;28;45112;-83
2022/12/10 00:15:47;;;;;;;;;43.00;34.50;;;;;4.34;71.18;100244.69;5028494;28;47266;-82
2022/12/10 00:18:12;;;;;;;;;40.67;36.33;;;;;4.37;71.42;100251.72;5058231;28;64653;-85
2022/12/10 00:20:38;;;;;;;;;49.33;43.00;;;;;4.33;71.36;100260.19;5067514;28;58825;-84
2022/12/10 00:23:04;;;;;;;;;48.50;42.25;;;;;4.26;71.67;100255.50;5067781;28;45542;-83
2022/12/10 00:25:31;;;;;;;;;49.75;41.75;;;;;4.05;71.50;100224.97;5068306;28;45577;-83
2022/12/10 00:27:56;;;;;;;;;56.00;44.75;;;;;4.22;71.42;100263.94;5067859;28;45262;-82
2022/12/10 00:30:21;;;;;;;;;53.33;42.67;;;;;4.16;71.59;100258.44;5067400;28;45061;-84
2022/12/10 00:32:46;;;;;;;;;45.00;39.50;;;;;4.07;71.78;100256.25;5065984;28;45009;-84
2022/12/10 00:35:12;;;;;;;;;53.67;40.33;;;;;4.16;71.68;100272.31;5036235;28;47229;-84
2022/12/10 00:37:37;;;;;;;;;43.75;39.50;;;;;4.19;72.05;100280.31;5051222;28;45049;-84
2022/12/10 00:40:03;;;;;;;;;49.67;42.67;;;;;3.98;72.27;100227.16;5051231;28;45157;-78
2022/12/10 00:42:28;;;;;;;;;45.00;40.75;;;;;4.28;72.10;100277.25;5051496;28;45122;-79
2022/12/10 00:44:54;;;;;;;;;43.33;39.33;;;;;4.24;72.36;100257.13;5050127;28;53037;-79
2022/12/10 00:47:19;;;;;;;;;45.67;38.00;;;;;4.22;72.50;100245.75;5050536;28;61091;-77
2022/12/10 00:49:44;;;;;;;;;46.67;41.67;;;;;4.29;72.07;100245.25;5050813;28;45004;-79
2022/12/10 00:52:09;;;;;;;;;43.33;40.33;;;;;4.47;72.12;100269.59;5050064;28;54383;-81
2022/12/10 00:54:35;;;;;;;;;52.33;41.00;;;;;4.45;72.25;100267.75;5050582;28;57808;-79
2022/12/10 00:57:00;;;;;;;;;52.50;38.00;;;;;4.53;71.82;100266.41;5050400;28;45223;-79
2022/12/10 00:59:25;;;;;;;;;49.00;40.67;;;;;4.61;71.75;100276.41;5050456;28;45014;-79
2022/12/10 01:01:51;;;;;;;;;45.33;39.67;;;;;4.39;71.89;100248.41;5050343;28;45877;-79
2022/12/10 01:04:17;;;;;;;;;46.00;39.67;;;;;4.47;71.84;100261.78;5068321;28;45155;-79
2022/12/10 01:06:48;;;;;;;;;41.50;39.00;;;;;4.57;72.05;100290.06;5057524;28;45244;-79
2022/12/10 01:09:17;;;;;;;;;44.00;38.75;;;;;4.40;72.21;100257.09;5067062;28;45145;-80
2022/12/10 01:11:45;;;;;;;;;37.75;30.25;;;;;4.55;72.08;100278.69;5067470;28;45064;-79
2022/12/10 01:14:13;;;;;;;;;42.25;36.50;;;;;4.64;72.14;100286.09;5050411;28;45564;-80
2022/12/10 01:16:38;;;;;;;;;39.75;36.75;;;;;4.70;72.22;100290.69;5050751;28;44997;-80
2022/12/10 01:19:05;;;;;;;;;49.25;37.75;;;;;4.64;72.22;100270.47;5050816;28;45096;-79
2022/12/10 01:21:30;;;;;;;;;46.00;40.25;;;;;4.58;72.16;100251.91;5050254;28;45455;-80
2022/12/10 01:23:57;;;;;;;;;43.33;38.33;;;;;4.88;72.29;100287.31;5053706;28;45997;-80
2022/12/10 01:26:24;;;;;;;;;48.50;43.25;;;;;4.94;71.89;100288.44;5070650;28;45182;-79
2022/12/10 01:28:51;;;;;;;;;40.00;36.50;;;;;4.98;71.90;100286.06;5052117;28;45099;-79
2022/12/10 01:31:28;;;;;;;;;46.75;38.25;;;;;4.99;72.01;100295.66;5070864;28;45078;-79
2022/12/10 01:33:55;;;;;;;;;46.00;39.50;;;;;5.04;71.98;100290.66;5067195;28;45659;-80
2022/12/10 01:36:44;;;;;;;;;41.75;38.25;;;;;5.08;71.79;100298.72;5050502;28;45176;-79
2022/12/10 01:39:12;;;;;;;;;48.25;42.00;;;;;4.86;71.99;100254.19;5050507;28;45099;-79
2022/12/10 01:41:50;;;;;;;;;43.25;40.00;;;;;5.14;71.61;100309.41;5049262;28;45309;-80
2022/12/10 01:44:16;;;;;;;;;34.00;30.75;;;;;5.15;71.69;100312.91;5049971;28;46010;-80
2022/12/10 01:46:44;;;;;;;;;43.67;39.67;;;;;4.85;71.53;100266.31;5049685;28;44989;-84
2022/12/10 01:49:12;;;;;;;;;42.75;33.50;;;;;5.09;71.54;100310.91;5050489;28;45320;-80
2022/12/10 01:51:40;;;;;;;;;34.00;31.50;;;;;5.12;71.78;100316.28;5049757;28;45502;-81
2022/12/10 01:54:12;;;;;;;;;42.00;37.00;;;;;4.96;71.52;100287.69;5050032;28;45607;-79
2022/12/10 01:56:41;;;;;;;;;42.75;37.00;;;;;5.14;71.37;100313.75;5032081;28;45304;-82
2022/12/10 01:59:07;;;;;;;;;44.00;37.75;;;;;5.14;71.43;100325.06;5049565;28;45374;-82
2022/12/10 02:01:41;;;;;;;;;29.75;23.25;;;;;5.18;71.40;100329.59;5063090;28;45112;-82
2022/12/10 02:04:25;;;;;;;;;40.00;34.25;;;;;5.16;71.22;100328.59;5069897;28;52604;-80
2022/12/10 02:07:02;;;;;;;;;46.25;36.75;;;;;4.99;71.63;100305.19;5069725;28;45384;-81
2022/12/10 02:09:45;;;;;;;;;47.75;39.00;;;;;5.18;71.54;100340.03;5049317;28;45172;-83
2022/12/10 02:12:40;;;;;;;;;36.00;34.50;;;;;5.20;71.46;100337.47;5049111;28;45297;-84
2022/12/10 02:15:26;;;;;;;;;46.00;39.50;;;;;5.22;71.36;100345.38;5029154;28;45167;-85
2022/12/10 02:17:57;;;;;;;;;53.50;41.50;;;;;5.22;71.55;100343.69;5048449;28;44986;-85
2022/12/10 02:20:25;;;;;;;;;43.50;38.75;;;;;5.25;71.30;100341.22;5049353;28;45153;-85
2022/12/10 02:22:57;;;;;;;;;43.25;37.50;;;;;4.86;71.44;100273.31;5049870;28;45208;-86
2022/12/10 02:25:32;;;;;;;;;42.25;37.75;;;;;5.22;71.57;100335.88;5048956;28;45072;-84
2022/12/10 02:28:30;;;;;;;;;44.75;37.50;;;;;5.24;71.54;100343.75;5029052;28;45069;-83
2022/12/10 02:30:58;;;;;;;;;47.00;39.25;;;;;5.14;71.62;100327.66;5053766;28;45292;-83
2022/12/10 02:33:25;;;;;;;;;52.50;41.75;;;;;5.03;71.52;100309.72;5068837;28;45765;-83
2022/12/10 02:35:53;;;;;;;;;42.00;39.25;;;;;5.08;71.49;100314.34;5049321;28;45890;-86
2022/12/10 02:38:30;;;;;;;;;50.00;42.25;;;;;5.26;71.53;100342.97;5049494;28;45049;-86
2022/12/10 02:41:01;;;;;;;;;50.25;40.50;;;;;5.25;71.76;100342.91;5049658;28;45001;-85
2022/12/10 02:43:29;;;;;;;;;45.50;38.50;;;;;5.11;71.41;100314.47;5064663;28;45269;-84
2022/12/10 02:45:56;;;;;;;;;41.00;31.75;;;;;5.26;71.43;100337.78;5068151;28;46059;-85
2022/12/10 02:48:22;;;;;;;;;46.75;41.75;;;;;5.07;71.52;100319.44;5069969;28;45197;-82
2022/12/10 02:50:47;;;;;;;;;45.00;37.25;;;;;5.13;71.52;100325.88;5069124;28;45176;-83
2022/12/10 02:53:12;;;;;;;;;46.00;39.67;;;;;5.25;71.77;100353.34;5069142;28;48757;-85
2022/12/10 02:56:13;;;;;;;;;47.75;41.00;;;;;5.26;71.64;100358.63;5069348;28;45719;-82
2022/12/10 02:58:59;;;;;;;;;55.25;42.25;;;;;5.13;71.54;100346.72;5049924;28;45415;-80
2022/12/10 03:02:09;;;;;;;;;36.25;35.00;;;;;5.24;71.62;100364.59;5069281;28;45100;-80
2022/12/10 03:04:56;;;;;;;;;41.00;33.75;;;;;5.23;71.55;100362.81;4987132;28;45078;-79
2022/12/10 03:07:32;;;;;;;;;42.50;39.75;;;;;5.11;71.64;100331.81;4986792;28;46384;-81
2022/12/10 03:10:06;;;;;;;;;36.75;32.50;;;;;5.02;71.73;100307.91;5045523;28;45498;-80
2022/12/10 03:12:42;;;;;;;;;43.50;39.00;;;;;5.21;71.59;100347.06;5069105;28;45172;-80
2022/12/10 03:15:11;;;;;;;;;47.75;38.00;;;;;5.20;71.39;100342.69;5069268;28;45048;-80
2022/12/10 03:17:38;;;;;;;;;52.00;33.75;;;;;5.08;71.66;100324.75;5050495;28;47271;-80
2022/12/10 03:20:08;;;;;;;;;45.75;39.25;;;;;5.11;71.69;100321.41;5052391;28;45530;-79
2022/12/10 03:22:37;;;;;;;;;43.75;36.25;;;;;5.27;72.04;100349.09;5049031;28;45026;-81
2022/12/10 03:25:03;;;;;;;;;39.75;28.50;;;;;5.22;72.00;100341.06;5048291;28;45140;-80
2022/12/10 03:27:29;;;;;;;;;47.25;41.25;;;;;5.32;71.76;100360.63;5046590;28;47494;-79
2022/12/10 03:29:57;;;;;;;;;45.00;31.50;;;;;5.33;71.84;100355.50;5048358;28;45150;-81
2022/12/10 03:32:25;;;;;;;;;47.00;34.50;;;;;5.02;71.73;100308.81;5048685;28;45598;-81
2022/12/10 03:34:54;;;;;;;;;34.75;29.50;;;;;5.14;71.83;100316.34;5048227;28;44965;-82
2022/12/10 03:37:21;;;;;;;;;38.00;35.25;;;;;5.38;72.08;100363.56;5048475;28;45258;-79
2022/12/10 03:39:46;;;;;;;;;47.25;42.00;;;;;5.35;71.94;100350.38;5048311;28;45562;-80
2022/12/10 03:42:12;;;;;;;;;44.50;39.75;;;;;5.41;71.88;100363.69;5029611;28;45199;-79
2022/12/10 03:44:40;;;;;;;;;28.00;24.50;;;;;5.34;71.42;100345.97;5048549;28;45484;-80
2022/12/10 03:47:10;;;;;;;;;40.00;33.25;;;;;5.39;71.53;100362.72;5047227;28;45370;-80
2022/12/10 03:49:36;;;;;;;;;36.00;30.00;;;;;5.38;71.50;100363.56;5048010;28;45410;-79
2022/12/10 03:52:01;;;;;;;;;35.50;32.75;;;;;5.35;71.67;100361.69;5048566;28;45307;-80
2022/12/10 03:54:26;;;;;;;;;40.00;33.50;;;;;5.34;71.50;100362.50;5029847;28;45210;-80
2022/12/10 03:56:52;;;;;;;;;36.50;31.50;;;;;5.33;71.69;100373.75;5029317;28;47431;-82
2022/12/10 03:59:17;;;;;;;;;37.00;28.67;;;;;5.09;71.69;100339.56;5048835;28;45242;-81
2022/12/10 04:01:43;;;;;;;;;34.75;29.00;;;;;5.09;71.78;100336.97;5048165;28;45138;-80
2022/12/10 04:04:08;;;;;;;;;40.25;33.75;;;;;5.33;71.73;100371.16;5048019;28;45108;-83
2022/12/10 04:06:37;;;;;;;;;38.00;33.75;;;;;5.24;71.64;100365.47;5047982;28;45211;-82
2022/12/10 04:09:02;;;;;;;;;38.25;32.75;;;;;5.11;71.69;100347.44;5047199;28;45033;-83
2022/12/10 04:11:27;;;;;;;;;42.00;34.25;;;;;5.28;71.72;100376.94;5046329;28;45069;-83
2022/12/10 04:16:37;;;;;;;;;32.00;27.25;;;;;5.18;71.66;100368.69;5047313;28;45238;-80
2022/12/10 04:19:06;;;;;;;;;36.25;30.00;;;;;5.21;71.79;100377.44;5046835;28;45088;-82
2022/12/10 04:27:09;;;;;;;;;30.50;25.00;;;;;5.25;72.00;100376.78;5047391;28;44977;-81
2022/12/10 04:29:34;;;;;;;;;34.75;26.00;;;;;5.21;71.40;100367.91;5047571;28;45116;-84
2022/12/10 04:32:00;;;;;;;;;28.67;23.00;;;;;5.27;71.54;100375.13;5046997;28;47784;-81
2022/12/10 04:34:26;;;;;;;;;26.00;22.25;;;;;5.20;71.84;100373.06;5049541;28;45333;-83
2022/12/10 04:36:51;;;;;;;;;23.00;20.75;;;;;5.26;71.79;100389.00;5047678;28;45609;-81
2022/12/10 04:39:17;;;;;;;;;23.50;21.25;;;;;5.25;71.77;100392.41;5064305;28;45280;-86
2022/12/10 04:41:46;;;;;;;;;29.25;23.75;;;;;5.21;71.48;100391.38;5067553;28;45246;-84
2022/12/10 04:44:12;;;;;;;;;30.75;24.25;;;;;5.09;71.73;100383.84;5068257;28;45158;-85
2022/12/10 04:46:38;;;;;;;;;27.00;23.00;;;;;4.98;71.48;100360.69;5066935;28;45008;-84
2022/12/10 04:49:04;;;;;;;;;25.25;22.25;;;;;5.16;71.93;100390.25;5067167;28;45581;-83
2022/12/10 04:51:30;;;;;;;;;27.25;23.75;;;;;5.07;71.74;100372.44;5050755;28;45136;-84
2022/12/10 04:53:56;;;;;;;;;26.25;24.00;;;;;5.08;71.61;100381.16;5047640;28;45172;-85
2022/12/10 04:56:22;;;;;;;;;24.50;20.75;;;;;5.00;71.36;100365.13;5047413;28;45286;-84
2022/12/10 04:58:48;;;;;;;;;27.50;21.50;;;;;5.16;71.44;100395.44;5047609;28;45301;-84
2022/12/10 05:01:13;;;;;;;;;27.75;23.25;;;;;5.13;71.41;100404.03;5029143;28;45580;-85
2022/12/10 05:03:39;;;;;;;;;25.75;23.50;;;;;5.11;71.55;100396.94;5046593;28;44919;-84
2022/12/10 05:06:07;;;;;;;;;27.50;22.00;;;;;5.13;71.69;100401.41;5046891;28;53631;-84
2022/12/10 05:08:33;;;;;;;;;25.50;21.50;;;;;5.06;71.59;100382.78;5047583;28;45859;-86
2022/12/10 05:11:14;;;;;;;;;26.50;24.75;;;;;5.06;71.27;100388.88;5047234;28;44943;-80
2022/12/10 05:13:40;;;;;;;;;25.75;24.50;;;;;4.95;71.47;100371.81;5047383;28;45017;-80
2022/12/10 05:16:08;;;;;;;;;23.00;21.50;;;;;5.11;71.73;100402.13;5047019;28;45443;-80
2022/12/10 05:18:34;;;;;;;;;25.25;20.50;;;;;4.97;71.52;100377.09;5045540;28;45059;-79
2022/12/10 05:21:02;;;;;;;;;25.75;22.75;;;;;5.12;71.54;100393.50;5047307;28;45542;-80
2022/12/10 05:23:27;;;;;;;;;28.00;20.50;;;;;5.03;71.94;100380.94;5049555;28;45134;-81
2022/12/10 05:25:59;;;;;;;;;25.00;23.75;;;;;5.15;71.58;100391.06;5049553;28;45713;-80
2022/12/10 05:28:26;;;;;;;;;22.25;17.50;;;;;5.08;71.71;100381.16;5028842;28;45523;-79
2022/12/10 05:30:51;;;;;;;;;24.00;20.75;;;;;5.14;71.40;100384.06;5030328;28;45217;-79
2022/12/10 05:33:16;;;;;;;;;28.00;21.67;;;;;5.21;71.35;100400.91;5038490;28;45553;-78
2022/12/10 05:35:42;;;;;;;;;23.33;20.67;;;;;5.20;70.92;100404.31;5047690;28;55434;-79
2022/12/10 05:38:07;;;;;;;;;25.67;22.00;;;;;5.07;71.34;100381.97;5050373;28;45293;-79
2022/12/10 05:40:38;;;;;;;;;26.25;22.25;;;;;5.20;71.56;100412.13;5050233;28;45196;-79
2022/12/10 05:43:04;;;;;;;;;25.50;22.75;;;;;5.22;71.37;100415.69;5061004;28;58696;-78
2022/12/10 05:45:32;;;;;;;;;22.75;18.75;;;;;5.23;71.63;100425.34;5070437;28;45728;-78
2022/12/10 05:47:58;;;;;;;;;27.25;25.50;;;;;5.10;71.08;100401.25;5054625;28;45438;-79
2022/12/10 05:50:23;;;;;;;;;25.00;22.50;;;;;5.28;71.27;100429.06;5059765;28;45125;-80
2022/12/10 05:52:50;;;;;;;;;26.67;21.67;;;;;5.29;71.15;100430.84;5070302;28;45034;-79
2022/12/10 05:55:16;;;;;;;;;22.25;18.75;;;;;5.31;71.41;100426.59;5053689;28;45159;-81
2022/12/10 05:57:41;;;;;;;;;25.00;19.25;;;;;5.15;71.23;100393.66;5048199;28;45190;-79
2022/12/10 06:00:07;;;;;;;;;25.67;22.67;;;;;5.34;71.01;100431.97;5049738;28;45148;-79
2022/12/10 06:02:33;;;;;;;;;25.00;19.25;;;;;5.26;71.31;100415.03;5050148;28;45140;-79
2022/12/10 06:04:58;;;;;;;;;24.50;21.50;;;;;5.33;71.04;100427.59;5049910;28;45570;-83
2022/12/10 06:07:24;;;;;;;;;19.25;16.50;;;;;5.37;71.06;100437.34;5065687;28;45122;-80
2022/12/10 06:09:50;;;;;;;;;21.25;18.00;;;;;5.15;71.11;100391.06;5070099;28;44989;-82
2022/12/10 06:12:15;;;;;;;;;22.50;18.00;;;;;5.38;70.98;100431.31;5070537;28;45350;-83
2022/12/10 06:14:40;;;;;;;;;20.75;20.00;;;;;5.22;70.87;100407.88;5069808;28;45462;-81
2022/12/10 06:17:06;;;;;;;;;23.25;21.50;;;;;5.35;70.90;100442.47;5069486;28;45075;-82
2022/12/10 06:19:31;;;;;;;;;27.50;24.50;;;;;5.20;70.81;100425.16;5070009;28;45247;-82
2022/12/10 06:21:57;;;;;;;;;24.67;21.67;;;;;5.30;70.96;100453.47;5069592;28;45066;-81
2022/12/10 06:24:23;;;;;;;;;24.25;19.00;;;;;5.26;70.88;100452.41;5069245;28;45053;-80
2022/12/10 06:26:48;;;;;;;;;18.50;17.50;;;;;5.07;71.10;100421.03;5068543;28;45201;-84
2022/12/10 06:29:13;;;;;;;;;19.50;17.00;;;;;5.27;71.25;100451.63;5070143;28;45104;-83
2022/12/10 06:31:39;;;;;;;;;22.00;18.00;;;;;5.29;71.21;100456.91;5067291;28;59430;-80
2022/12/10 06:34:05;;;;;;;;;19.75;18.00;;;;;5.23;71.19;100448.78;5041363;28;47041;-81
2022/12/10 06:36:30;;;;;;;;;19.00;15.25;;;;;5.30;70.80;100453.47;5029705;28;44995;-79
2022/12/10 06:38:55;;;;;;;;;22.50;20.00;;;;;5.20;70.91;100438.19;5027887;28;45115;-79
2022/12/10 06:41:21;;;;;;;;;29.50;20.25;;;;;5.05;70.80;100426.16;5029364;28;45125;-82
2022/12/10 06:43:47;;;;;;;;;21.50;18.00;;;;;5.00;71.01;100409.41;5056624;28;46469;-79
2022/12/10 06:46:18;;;;;;;;;23.75;18.50;;;;;5.29;70.98;100456.91;5068404;28;45070;-84
2022/12/10 06:48:43;;;;;;;;;22.50;17.25;;;;;5.31;70.84;100470.88;5069280;28;44985;-83
2022/12/10 06:51:11;;;;;;;;;17.00;14.00;;;;;5.31;70.55;100470.88;5068916;28;45186;-81
2022/12/10 06:53:38;;;;;;;;;21.25;16.00;;;;;4.98;70.59;100429.28;5050682;28;46482;-79
2022/12/10 06:56:05;;;;;;;;;18.50;16.75;;;;;5.30;70.62;100485.63;5069287;28;45207;-83
2022/12/10 06:58:32;;;;;;;;;15.50;13.50;;;;;5.29;70.64;100489.06;5050046;28;45151;-81
2022/12/10 07:01:09;;;;;;;;;23.00;20.00;;;;;5.29;70.76;100483.84;5048062;28;45306;-80
2022/12/10 07:03:35;;;;;;;;;24.75;16.75;;;;;5.15;70.45;100467.50;5048620;28;45302;-84
2022/12/10 07:06:02;;;;;;;;;20.75;17.50;;;;;5.32;70.69;100501.34;5049000;28;45336;-85
2022/12/10 07:08:28;;;;;;;;;22.75;20.00;;;;;5.11;70.64;100456.84;5049159;28;45163;-84
2022/12/10 07:10:54;;;;;;;;;21.00;18.50;;;;;5.37;70.56;100497.28;5048599;28;45693;-85
2022/12/10 07:13:20;;;;;;;;;22.50;18.00;;;;;5.15;70.51;100458.78;5049052;28;45085;-85
2022/12/10 07:15:45;;;;;;;;;21.25;20.00;;;;;5.35;70.53;100496.28;5048834;28;45407;-84
2022/12/10 07:18:10;;;;;;;;;22.00;18.33;;;;;5.37;70.65;100497.28;5048384;28;46731;-84
2022/12/10 07:20:36;;;;;;;;;28.00;25.33;;;;;5.37;70.48;100500.78;5048358;28;51584;-85
2022/12/10 07:23:01;;;;;;;;;19.00;17.33;;;;;5.35;70.65;100499.78;5048109;28;45937;-85
2022/12/10 07:25:26;;;;;;;;;25.00;23.33;;;;;5.39;70.47;100508.66;5048694;28;45072;-83
2022/12/10 07:27:51;;;;;;;;;32.67;26.33;;;;;5.37;70.71;100515.53;5048548;28;45155;-80
2022/12/10 07:30:17;;;;;;;;;22.00;17.67;;;;;5.20;70.47;100482.47;5038837;28;59812;-79
2022/12/10 07:32:42;;;;;;;;;25.33;22.33;;;;;5.20;70.48;100492.91;5031241;28;46301;-80
2022/12/10 07:35:07;;;;;;;;;25.67;21.67;;;;;5.27;70.31;100505.41;5034345;28;45526;-80
2022/12/10 07:37:33;;;;;;;;;20.00;17.00;;;;;5.16;70.52;100486.63;5029396;28;45540;-79
2022/12/10 07:39:59;;;;;;;;;25.00;19.25;;;;;5.38;70.93;100517.31;5029602;28;45571;-79
2022/12/10 07:42:24;;;;;;;;;28.25;24.00;;;;;5.45;70.51;100529.81;5020318;28;45955;-78
2022/12/10 07:44:49;;;;;;;;;29.67;21.33;;;;;5.47;71.14;100530.81;5028340;28;57835;-79
2022/12/10 07:47:15;;;;;;;;;22.00;19.33;;;;;5.40;70.71;100524.38;5029439;28;45496;-79
2022/12/10 07:49:40;;;;;;;;;18.00;17.50;;;;;5.29;70.39;100501.19;5029204;28;45444;-80
2022/12/10 07:52:05;;;;;;;;;26.33;22.67;;;;;5.37;70.27;100513.81;5036056;28;68115;-78
2022/12/10 07:54:31;;;;;;;;;22.50;19.00;;;;;5.55;70.22;100542.50;5030445;28;45673;-81
2022/12/10 07:56:56;;;;;;;;;21.67;20.33;;;;;5.41;70.38;100507.03;5022270;28;46218;-80
2022/12/10 07:59:21;;;;;;;;;23.00;19.33;;;;;5.58;70.53;100534.84;5027106;28;45069;-79
2022/12/10 08:01:47;;;;;;;;;23.33;21.33;;;;;5.41;70.09;100525.25;5015935;28;49068;-79
2022/12/10 08:04:13;;;;;;;;;20.75;18.00;;;;;5.30;69.91;100506.47;5021981;28;45450;-80
2022/12/10 08:06:38;;;;;;;;;26.50;21.75;;;;;5.28;70.23;100522.88;5025002;28;45380;-78
2022/12/10 08:09:04;;;;;;;;;26.33;21.67;;;;;5.40;70.76;100539.13;5028076;28;45527;-80
2022/12/10 08:11:29;;;;;;;;;29.75;26.50;;;;;5.47;70.33;100550.75;5030056;28;47067;-84
2022/12/10 08:13:55;;;;;;;;;23.75;21.75;;;;;5.49;70.43;100551.72;5040874;28;45443;-83
2022/12/10 08:16:22;;;;;;;;;26.00;22.00;;;;;5.47;70.25;100562.09;5038330;28;45547;-82
2022/12/10 08:18:48;;;;;;;;;21.75;19.50;;;;;5.49;70.52;100562.16;5047116;28;45101;-80
2022/12/10 08:21:16;;;;;;;;;19.00;16.00;;;;;5.34;70.57;100531.00;5019722;28;47207;-80
2022/12/10 08:23:42;;;;;;;;;21.50;20.50;;;;;5.59;70.25;100573.13;5046308;28;45666;-85
2022/12/10 08:26:11;;;;;;;;;26.50;22.50;;;;;5.63;70.46;100575.09;5043500;28;45242;-80
2022/12/10 08:28:37;;;;;;;;;28.00;23.50;;;;;5.46;70.38;100542.03;5043113;28;45262;-79
2022/12/10 08:31:03;;;;;;;;;25.50;21.00;;;;;5.50;69.99;100545.69;5031721;28;45417;-80
2022/12/10 08:33:29;;;;;;;;;21.75;18.50;;;;;5.57;69.96;100548.72;5027197;28;46049;-80
2022/12/10 08:36:01;;;;;;;;;23.00;20.00;;;;;5.85;69.81;100589.22;5028260;28;45615;-83
2022/12/10 08:38:27;;;;;;;;;20.75;17.75;;;;;5.78;69.80;100571.47;5031769;28;45705;-83
2022/12/10 08:40:52;;;;;;;;;27.00;23.25;;;;;5.89;69.90;100584.22;5040483;28;46152;-82
2022/12/10 08:43:18;;;;;;;;;25.50;21.50;;;;;5.94;69.57;100589.72;5037432;28;45026;-83
2022/12/10 08:45:43;;;;;;;;;22.75;18.50;;;;;5.94;69.54;100576.66;5047456;28;45237;-84
2022/12/10 08:48:08;;;;;;;;;27.33;20.33;;;;;5.85;69.80;100555.31;5046906;28;60335;-83
2022/12/10 08:50:34;;;;;;;;;28.00;22.75;;;;;5.75;69.60;100540.00;5046551;28;45597;-84
2022/12/10 08:52:59;;;;;;;;;22.67;20.33;;;;;6.07;69.77;100589.53;5047448;28;45052;-85
2022/12/10 08:55:25;;;;;;;;;24.75;20.25;;;;;6.00;69.28;100576.06;5047494;28;45100;-84
2022/12/10 08:57:50;;;;;;;;;23.75;20.75;;;;;6.00;69.44;100566.53;5048458;28;45576;-84
2022/12/10 09:00:16;;;;;;;;;27.00;23.00;;;;;6.18;69.65;100598.78;5064060;28;45645;-82
2022/12/10 09:02:41;;;;;;;;;21.75;21.25;;;;;6.22;69.20;100592.00;5051881;28;45275;-87
2022/12/10 09:05:07;;;;;;;;;26.67;15.33;;;;;5.79;69.44;100514.19;5054201;28;50161;-80
2022/12/10 09:07:33;;;;;;;;;22.00;18.50;;;;;6.35;68.96;100606.53;5050278;28;45049;-80
2022/12/10 09:09:58;;;;;;;;;27.50;23.50;;;;;6.31;69.23;100604.59;5041867;28;45514;-80
2022/12/10 09:12:23;;;;;;;;;22.67;20.67;;;;;6.33;69.23;100589.91;5049589;28;45811;-79
2022/12/10 09:14:49;;;;;;;;;23.25;19.00;;;;;6.30;69.00;100581.91;5043646;28;45455;-79
2022/12/10 09:17:14;;;;;;;;;21.50;17.25;;;;;6.54;68.93;100610.94;5050311;28;45181;-83
2022/12/10 09:19:40;;;;;;;;;24.25;19.00;;;;;6.45;68.66;100587.88;5044505;28;46372;-82
2022/12/10 09:22:05;;;;;;;;;21.33;19.67;;;;;6.67;68.54;100611.59;5050023;28;50984;-84
2022/12/10 09:24:30;;;;;;;;;22.00;17.75;;;;;6.79;68.17;100621.72;5029616;28;45312;-84
2022/12/10 09:26:56;;;;;;;;;24.75;20.75;;;;;6.44;68.11;100541.72;5040884;28;45438;-84
2022/12/10 09:29:21;;;;;;;;;25.33;22.00;;;;;6.86;67.92;100630.78;5041784;28;56773;-85
2022/12/10 09:31:50;;;;;;;;;16.67;16.33;;;;;6.86;68.10;100620.31;5037628;28;45914;-86
2022/12/10 09:34:16;;;;;;;;;20.50;19.50;;;;;6.65;67.77;100581.91;5043519;28;45300;-86
2022/12/10 09:36:41;;;;;;;;;20.50;19.75;;;;;6.79;67.87;100606.06;5039972;28;45431;-84
2022/12/10 09:39:06;;;;;;;;;19.00;18.00;;;;;6.90;68.03;100624.88;5024416;28;48130;-84
2022/12/10 09:41:41;;;;;;;;;18.33;16.67;;;;;6.86;67.89;100629.06;5045322;28;53662;-79
2022/12/10 09:44:40;;;;;;;;;26.50;22.00;;;;;6.84;67.66;100630.69;5045865;28;45178;-81
2022/12/10 09:47:09;;;;;;;;;21.00;18.00;;;;;6.81;67.59;100635.78;5049868;28;45151;-79
2022/12/10 09:49:52;;;;;;;;;20.50;18.75;;;;;6.83;67.77;100628.88;5058588;28;47553;-79
2022/12/10 09:52:22;;;;;;;;;23.00;20.75;;;;;6.72;67.63;100602.28;5053411;28;44985;-79
2022/12/10 09:54:54;;;;;;;;;21.00;18.75;;;;;6.93;67.59;100631.13;5041755;28;45336;-81
2022/12/10 09:57:25;;;;;;;;;21.75;19.00;;;;;6.75;67.53;100595.38;5043092;28;45512;-80
2022/12/10 09:59:52;;;;;;;;;21.00;19.25;;;;;6.96;67.16;100643.44;5055849;28;46306;-83
2022/12/10 10:02:28;;;;;;;;;21.00;18.25;;;;;6.92;67.24;100646.72;5048959;28;45301;-84
2022/12/10 10:05:06;;;;;;;;;21.50;18.50;;;;;6.79;67.16;100615.59;5049416;28;45091;-79
2022/12/10 10:07:44;;;;;;;;;21.25;20.00;;;;;6.98;67.13;100636.56;5049729;28;45297;-80
2022/12/10 10:10:38;;;;;;;;;26.00;23.50;;;;;6.97;66.97;100638.28;5043325;28;45229;-79
2022/12/10 10:13:27;;;;;;;;;20.25;19.75;;;;;6.95;66.79;100636.44;5037582;28;45482;-80
2022/12/10 10:15:53;;;;;;;;;23.25;21.75;;;;;6.86;67.06;100628.16;5047897;28;45152;-79
2022/12/10 10:18:30;;;;;;;;;25.75;18.50;;;;;6.97;67.05;100638.28;5049493;28;45080;-79
2022/12/10 10:20:56;;;;;;;;;24.75;20.75;;;;;6.76;66.84;100599.81;5049681;28;45646;-80
2022/12/10 10:23:21;;;;;;;;;21.75;18.50;;;;;6.73;66.71;100611.00;5031186;28;45196;-81
2022/12/10 10:25:50;;;;;;;;;29.00;21.67;;;;;6.62;66.58;100609.59;5044556;28;45232;-81
2022/12/10 10:28:21;;;;;;;;;20.50;16.00;;;;;6.55;66.98;100610.09;5047022;28;45031;-85
2022/12/10 10:30:47;;;;;;;;;24.75;24.25;;;;;6.64;66.99;100629.72;5044906;28;45907;-81
2022/12/10 10:33:15;;;;;;;;;22.50;16.25;;;;;6.42;66.96;100600.81;5041074;28;45989;-87
2022/12/10 10:35:47;;;;;;;;;22.00;20.25;;;;;6.51;66.83;100631.69;5032953;28;45552;-85
2022/12/10 10:38:26;;;;;;;;;24.25;21.50;;;;;6.31;67.22;100615.94;5030456;28;45478;-83
2022/12/10 10:40:54;;;;;;;;;19.75;17.25;;;;;6.38;67.20;100633.69;5030203;28;46826;-80
2022/12/10 10:43:24;;;;;;;;;27.00;22.75;;;;;6.41;67.22;100635.56;5030593;28;45771;-79
2022/12/10 10:45:58;;;;;;;;;18.00;16.50;;;;;6.43;67.43;100637.41;5029918;28;45565;-79
2022/12/10 10:48:25;;;;;;;;;27.75;23.50;;;;;6.52;67.38;100639.59;5030723;28;45420;-82
2022/12/10 10:51:12;;;;;;;;;23.25;20.25;;;;;6.61;67.32;100641.75;5029789;28;45545;-83
2022/12/10 10:53:43;;;;;;;;;16.25;15.75;;;;;6.49;66.88;100615.94;5030742;28;45619;-80
2022/12/10 10:56:29;;;;;;;;;26.25;16.25;;;;;6.67;67.04;100645.56;5030612;28;45540;-84
2022/12/10 10:59:26;;;;;;;;;22.50;18.75;;;;;6.83;67.14;100647.19;5029782;28;45719;-80
2022/12/10 11:01:54;;;;;;;;;24.00;21.75;;;;;6.76;66.90;100616.38;5020355;28;46040;-83
2022/12/10 11:04:34;;;;;;;;;21.00;16.00;;;;;7.10;66.87;100647.59;5030407;28;46126;-81
2022/12/10 11:07:03;;;;;;;;;23.00;21.75;;;;;7.18;66.34;100648.84;5029459;28;45501;-84
2022/12/10 11:09:35;;;;;;;;;23.00;20.25;;;;;7.11;66.34;100624.97;5030482;28;45804;-83
2022/12/10 11:12:07;;;;;;;;;29.50;21.00;;;;;7.31;66.30;100645.06;5029853;28;45430;-86
2022/12/10 11:14:40;;;;;;;;;23.50;20.50;;;;;7.41;66.11;100649.00;5030773;28;45479;-85
2022/12/10 11:17:08;;;;;;;;;22.50;19.25;;;;;7.34;65.44;100637.38;5020040;28;45568;-82
2022/12/10 11:19:34;;;;;;;;;18.00;14.25;;;;;7.07;65.75;100616.09;5029142;28;45490;-82
2022/12/10 11:22:28;;;;;;;;;20.33;20.00;;;;;7.08;65.76;100632.66;5017729;28;46090;-86
2022/12/10 11:24:53;;;;;;;;;18.00;16.25;;;;;6.82;65.66;100600.09;5034401;28;45541;-86
2022/12/10 11:27:32;;;;;;;;;12.50;12.25;;;;;7.04;65.76;100639.44;5033927;28;45652;-81
2022/12/10 11:30:10;;;;;;;;;19.25;17.75;;;;;7.17;65.82;100640.94;5025921;28;45394;-81
2022/12/10 11:33:04;;;;;;;;;18.75;15.50;;;;;7.27;65.68;100642.25;5029675;28;46837;-81